sensor_id;sensor_type;location;lat;lon;timestamp;P1;durP1;ratioP1;P2;durP2;ratioP2
19251;SDS011;9760;50.944;5.304;2023-03-16T00:02:07;13.23;;;4.83;;
19251;SDS011;9760;50.944;5.304;2023-03-16T00:04:34;8.77;;;4.63;;
19251;SDS011;9760;50.944;5.304;2023-03-16T00:07:03;7.30;;;4.30;;
19251;SDS011;9760;50.944;5.304;2023-03-16T00:09:30;9.90;;;4.70;;
19251;SDS011;9760;50.944;5.304;2023-03-16T00:11:59;7.00;;;4.37;;
19251;SDS011;9760;50.944;5.304;2023-03-16T00:14:29;7.80;;;4.13;;
19251;SDS011;9760;50.944;5.304;2023-03-16T00:16:55;10.63;;;4.03;;
19251;SDS011;9760;50.944;5.304;2023-03-16T00:19:20;9.77;;;4.80;;
19251;SDS011;9760;50.944;5.304;2023-03-16T00:21:46;6.53;;;4.37;;
19251;SDS011;9760;50.944;5.304;2023-03-16T00:24:16;10.33;;;4.27;;
19251;SDS011;9760;50.944;5.304;2023-03-16T00:26:46;8.47;;;4.60;;
19251;SDS011;9760;50.944;5.304;2023-03-16T00:29:12;15.10;;;4.70;;
19251;SDS011;9760;50.944;5.304;2023-03-16T00:31:38;9.47;;;4.80;;
19251;SDS011;9760;50.944;5.304;2023-03-16T00:34:07;10.47;;;3.97;;
19251;SDS011;9760;50.944;5.304;2023-03-16T00:36:34;10.93;;;4.03;;
19251;SDS011;9760;50.944;5.304;2023-03-16T00:39:02;9.10;;;4.20;;
19251;SDS011;9760;50.944;5.304;2023-03-16T00:41:30;8.93;;;4.57;;
19251;SDS011;9760;50.944;5.304;2023-03-16T00:43:56;9.63;;;4.43;;
19251;SDS011;9760;50.944;5.304;2023-03-16T00:46:22;12.67;;;4.57;;
19251;SDS011;9760;50.944;5.304;2023-03-16T00:48:50;9.77;;;4.07;;
19251;SDS011;9760;50.944;5.304;2023-03-16T00:51:16;7.57;;;3.77;;
19251;SDS011;9760;50.944;5.304;2023-03-16T00:53:43;11.70;;;4.57;;
19251;SDS011;9760;50.944;5.304;2023-03-16T00:56:10;8.03;;;3.70;;
19251;SDS011;9760;50.944;5.304;2023-03-16T00:58:37;12.13;;;4.30;;
19251;SDS011;9760;50.944;5.304;2023-03-16T01:03:31;7.67;;;3.67;;
19251;SDS011;9760;50.944;5.304;2023-03-16T01:05:57;7.60;;;3.90;;
19251;SDS011;9760;50.944;5.304;2023-03-16T01:08:27;6.07;;;3.53;;
19251;SDS011;9760;50.944;5.304;2023-03-16T01:10:53;7.43;;;3.93;;
19251;SDS011;9760;50.944;5.304;2023-03-16T01:13:19;10.27;;;4.10;;
19251;SDS011;9760;50.944;5.304;2023-03-16T01:15:45;9.73;;;4.17;;
19251;SDS011;9760;50.944;5.304;2023-03-16T01:18:11;7.77;;;3.80;;
19251;SDS011;9760;50.944;5.304;2023-03-16T01:20:38;7.90;;;3.33;;
19251;SDS011;9760;50.944;5.304;2023-03-16T01:23:04;9.67;;;3.93;;
19251;SDS011;9760;50.944;5.304;2023-03-16T01:25:29;12.50;;;3.43;;
19251;SDS011;9760;50.944;5.304;2023-03-16T01:27:56;10.63;;;3.90;;
19251;SDS011;9760;50.944;5.304;2023-03-16T01:30:22;10.67;;;3.73;;
19251;SDS011;9760;50.944;5.304;2023-03-16T01:32:48;9.07;;;3.70;;
19251;SDS011;9760;50.944;5.304;2023-03-16T01:35:13;7.23;;;2.90;;
19251;SDS011;9760;50.944;5.304;2023-03-16T01:37:39;10.93;;;3.67;;
19251;SDS011;9760;50.944;5.304;2023-03-16T01:40:05;11.37;;;3.57;;
19251;SDS011;9760;50.944;5.304;2023-03-16T01:42:40;13.63;;;3.60;;
19251;SDS011;9760;50.944;5.304;2023-03-16T01:45:52;6.40;;;3.70;;
19251;SDS011;9760;50.944;5.304;2023-03-16T01:48:12;6.20;;;3.43;;
19251;SDS011;9760;50.944;5.304;2023-03-16T01:50:39;7.17;;;2.87;;
19251;SDS011;9760;50.944;5.304;2023-03-16T01:53:06;11.20;;;3.13;;
19251;SDS011;9760;50.944;5.304;2023-03-16T01:55:32;6.23;;;3.23;;
19251;SDS011;9760;50.944;5.304;2023-03-16T01:57:58;8.87;;;3.40;;
19251;SDS011;9760;50.944;5.304;2023-03-16T02:00:24;7.73;;;3.03;;
19251;SDS011;9760;50.944;5.304;2023-03-16T02:02:56;10.93;;;2.83;;
19251;SDS011;9760;50.944;5.304;2023-03-16T02:08:02;5.23;;;3.03;;
19251;SDS011;9760;50.944;5.304;2023-03-16T02:10:29;7.97;;;3.40;;
19251;SDS011;9760;50.944;5.304;2023-03-16T02:12:55;10.77;;;3.40;;
19251;SDS011;9760;50.944;5.304;2023-03-16T02:15:22;5.60;;;2.87;;
19251;SDS011;9760;50.944;5.304;2023-03-16T02:17:48;8.97;;;3.13;;
19251;SDS011;9760;50.944;5.304;2023-03-16T02:22:59;6.00;;;2.90;;
19251;SDS011;9760;50.944;5.304;2023-03-16T02:25:43;6.57;;;3.03;;
19251;SDS011;9760;50.944;5.304;2023-03-16T02:28:25;7.37;;;3.13;;
19251;SDS011;9760;50.944;5.304;2023-03-16T02:31:12;7.67;;;3.10;;
19251;SDS011;9760;50.944;5.304;2023-03-16T02:33:40;5.67;;;2.60;;
19251;SDS011;9760;50.944;5.304;2023-03-16T02:36:07;7.60;;;2.63;;
19251;SDS011;9760;50.944;5.304;2023-03-16T02:38:33;7.77;;;2.87;;
19251;SDS011;9760;50.944;5.304;2023-03-16T02:41:16;6.13;;;2.57;;
19251;SDS011;9760;50.944;5.304;2023-03-16T02:43:45;9.23;;;3.23;;
19251;SDS011;9760;50.944;5.304;2023-03-16T02:46:16;5.23;;;2.67;;
19251;SDS011;9760;50.944;5.304;2023-03-16T02:48:48;11.27;;;3.20;;
19251;SDS011;9760;50.944;5.304;2023-03-16T02:51:19;7.30;;;2.70;;
19251;SDS011;9760;50.944;5.304;2023-03-16T02:53:45;11.17;;;2.70;;
19251;SDS011;9760;50.944;5.304;2023-03-16T02:56:10;7.13;;;2.70;;
19251;SDS011;9760;50.944;5.304;2023-03-16T02:58:36;6.00;;;2.73;;
19251;SDS011;9760;50.944;5.304;2023-03-16T03:01:02;8.80;;;2.87;;
19251;SDS011;9760;50.944;5.304;2023-03-16T03:03:27;6.77;;;2.70;;
19251;SDS011;9760;50.944;5.304;2023-03-16T03:05:53;11.93;;;2.90;;
19251;SDS011;9760;50.944;5.304;2023-03-16T03:08:19;5.00;;;2.70;;
19251;SDS011;9760;50.944;5.304;2023-03-16T03:10:46;13.87;;;2.70;;
19251;SDS011;9760;50.944;5.304;2023-03-16T03:13:12;7.30;;;3.20;;
19251;SDS011;9760;50.944;5.304;2023-03-16T03:15:38;5.57;;;2.60;;
19251;SDS011;9760;50.944;5.304;2023-03-16T03:18:04;10.17;;;2.87;;
19251;SDS011;9760;50.944;5.304;2023-03-16T03:20:30;6.03;;;2.60;;
19251;SDS011;9760;50.944;5.304;2023-03-16T03:22:56;5.80;;;2.87;;
19251;SDS011;9760;50.944;5.304;2023-03-16T03:25:22;5.23;;;2.50;;
19251;SDS011;9760;50.944;5.304;2023-03-16T03:27:48;7.60;;;2.80;;
19251;SDS011;9760;50.944;5.304;2023-03-16T03:30:18;4.33;;;2.57;;
19251;SDS011;9760;50.944;5.304;2023-03-16T03:32:46;5.40;;;2.63;;
19251;SDS011;9760;50.944;5.304;2023-03-16T03:35:12;8.37;;;3.00;;
19251;SDS011;9760;50.944;5.304;2023-03-16T03:37:40;9.40;;;2.90;;
19251;SDS011;9760;50.944;5.304;2023-03-16T03:40:08;7.20;;;3.30;;
19251;SDS011;9760;50.944;5.304;2023-03-16T03:42:36;8.07;;;2.87;;
19251;SDS011;9760;50.944;5.304;2023-03-16T03:45:02;10.23;;;3.10;;
19251;SDS011;9760;50.944;5.304;2023-03-16T03:47:28;12.17;;;3.67;;
19251;SDS011;9760;50.944;5.304;2023-03-16T03:49:54;5.97;;;3.20;;
19251;SDS011;9760;50.944;5.304;2023-03-16T03:52:20;10.40;;;3.43;;
19251;SDS011;9760;50.944;5.304;2023-03-16T03:54:45;8.47;;;3.07;;
19251;SDS011;9760;50.944;5.304;2023-03-16T03:57:11;7.57;;;3.40;;
19251;SDS011;9760;50.944;5.304;2023-03-16T03:59:37;11.57;;;3.57;;
19251;SDS011;9760;50.944;5.304;2023-03-16T04:02:08;5.93;;;2.83;;
19251;SDS011;9760;50.944;5.304;2023-03-16T04:04:34;7.83;;;3.13;;
19251;SDS011;9760;50.944;5.304;2023-03-16T04:07:00;8.53;;;3.40;;
19251;SDS011;9760;50.944;5.304;2023-03-16T04:09:27;13.67;;;3.67;;
19251;SDS011;9760;50.944;5.304;2023-03-16T04:11:53;9.73;;;3.30;;
19251;SDS011;9760;50.944;5.304;2023-03-16T04:14:21;10.00;;;3.33;;
19251;SDS011;9760;50.944;5.304;2023-03-16T04:16:47;7.40;;;3.30;;
19251;SDS011;9760;50.944;5.304;2023-03-16T04:19:13;9.07;;;3.40;;
19251;SDS011;9760;50.944;5.304;2023-03-16T04:21:38;9.90;;;3.30;;
19251;SDS011;9760;50.944;5.304;2023-03-16T04:24:04;7.63;;;2.83;;
19251;SDS011;9760;50.944;5.304;2023-03-16T04:26:30;11.03;;;3.27;;
19251;SDS011;9760;50.944;5.304;2023-03-16T04:28:56;9.67;;;3.13;;
19251;SDS011;9760;50.944;5.304;2023-03-16T04:31:22;8.67;;;3.17;;
19251;SDS011;9760;50.944;5.304;2023-03-16T04:33:48;7.20;;;2.90;;
19251;SDS011;9760;50.944;5.304;2023-03-16T04:36:14;9.33;;;3.30;;
19251;SDS011;9760;50.944;5.304;2023-03-16T04:38:40;8.43;;;2.83;;
19251;SDS011;9760;50.944;5.304;2023-03-16T04:41:06;6.27;;;2.77;;
19251;SDS011;9760;50.944;5.304;2023-03-16T04:43:31;6.60;;;3.10;;
19251;SDS011;9760;50.944;5.304;2023-03-16T04:45:59;6.87;;;3.27;;
19251;SDS011;9760;50.944;5.304;2023-03-16T04:48:28;7.40;;;2.83;;
19251;SDS011;9760;50.944;5.304;2023-03-16T04:50:54;6.60;;;3.13;;
19251;SDS011;9760;50.944;5.304;2023-03-16T04:53:20;10.27;;;3.33;;
19251;SDS011;9760;50.944;5.304;2023-03-16T04:55:45;5.27;;;3.10;;
19251;SDS011;9760;50.944;5.304;2023-03-16T04:58:11;14.43;;;3.50;;
19251;SDS011;9760;50.944;5.304;2023-03-16T05:00:40;9.80;;;3.67;;
19251;SDS011;9760;50.944;5.304;2023-03-16T05:03:06;4.97;;;2.90;;
19251;SDS011;9760;50.944;5.304;2023-03-16T05:05:34;7.63;;;3.27;;
19251;SDS011;9760;50.944;5.304;2023-03-16T05:08:00;8.23;;;3.27;;
19251;SDS011;9760;50.944;5.304;2023-03-16T05:10:27;7.43;;;3.30;;
19251;SDS011;9760;50.944;5.304;2023-03-16T05:12:52;9.47;;;3.10;;
19251;SDS011;9760;50.944;5.304;2023-03-16T05:15:19;7.10;;;3.20;;
19251;SDS011;9760;50.944;5.304;2023-03-16T05:17:45;7.23;;;3.37;;
19251;SDS011;9760;50.944;5.304;2023-03-16T05:20:11;9.70;;;2.80;;
19251;SDS011;9760;50.944;5.304;2023-03-16T05:22:41;11.30;;;3.47;;
19251;SDS011;9760;50.944;5.304;2023-03-16T05:25:07;8.80;;;3.30;;
19251;SDS011;9760;50.944;5.304;2023-03-16T05:27:39;7.80;;;3.80;;
19251;SDS011;9760;50.944;5.304;2023-03-16T05:30:12;8.30;;;3.20;;
19251;SDS011;9760;50.944;5.304;2023-03-16T05:32:40;6.87;;;2.97;;
19251;SDS011;9760;50.944;5.304;2023-03-16T05:35:06;10.90;;;3.33;;
19251;SDS011;9760;50.944;5.304;2023-03-16T05:37:32;7.93;;;3.67;;
19251;SDS011;9760;50.944;5.304;2023-03-16T05:40:02;7.43;;;3.03;;
19251;SDS011;9760;50.944;5.304;2023-03-16T05:42:36;7.00;;;3.27;;
19251;SDS011;9760;50.944;5.304;2023-03-16T05:45:01;10.23;;;3.20;;
19251;SDS011;9760;50.944;5.304;2023-03-16T05:47:27;6.00;;;2.87;;
19251;SDS011;9760;50.944;5.304;2023-03-16T05:49:53;8.87;;;3.23;;
19251;SDS011;9760;50.944;5.304;2023-03-16T05:52:18;13.53;;;3.53;;
19251;SDS011;9760;50.944;5.304;2023-03-16T05:54:44;8.07;;;3.10;;
19251;SDS011;9760;50.944;5.304;2023-03-16T05:57:09;4.70;;;3.00;;
19251;SDS011;9760;50.944;5.304;2023-03-16T05:59:35;6.83;;;2.77;;
19251;SDS011;9760;50.944;5.304;2023-03-16T06:02:01;5.17;;;2.70;;
19251;SDS011;9760;50.944;5.304;2023-03-16T06:04:26;6.60;;;3.03;;
19251;SDS011;9760;50.944;5.304;2023-03-16T06:06:52;18.40;;;3.50;;
19251;SDS011;9760;50.944;5.304;2023-03-16T06:09:17;8.13;;;3.10;;
19251;SDS011;9760;50.944;5.304;2023-03-16T06:11:43;8.00;;;3.30;;
19251;SDS011;9760;50.944;5.304;2023-03-16T06:14:08;7.87;;;3.40;;
19251;SDS011;9760;50.944;5.304;2023-03-16T06:16:34;10.57;;;3.30;;
19251;SDS011;9760;50.944;5.304;2023-03-16T06:19:00;9.63;;;3.40;;
19251;SDS011;9760;50.944;5.304;2023-03-16T06:21:25;9.97;;;2.90;;
19251;SDS011;9760;50.944;5.304;2023-03-16T06:23:51;6.20;;;3.10;;
19251;SDS011;9760;50.944;5.304;2023-03-16T06:26:16;6.57;;;2.90;;
19251;SDS011;9760;50.944;5.304;2023-03-16T06:28:42;4.83;;;2.90;;
19251;SDS011;9760;50.944;5.304;2023-03-16T06:31:08;9.20;;;2.77;;
19251;SDS011;9760;50.944;5.304;2023-03-16T06:33:33;9.37;;;2.77;;
19251;SDS011;9760;50.944;5.304;2023-03-16T06:35:59;8.20;;;2.73;;
19251;SDS011;9760;50.944;5.304;2023-03-16T06:38:25;10.13;;;3.10;;
19251;SDS011;9760;50.944;5.304;2023-03-16T06:40:51;13.17;;;3.07;;
19251;SDS011;9760;50.944;5.304;2023-03-16T06:43:17;7.17;;;2.57;;
19251;SDS011;9760;50.944;5.304;2023-03-16T06:45:43;6.57;;;2.70;;
19251;SDS011;9760;50.944;5.304;2023-03-16T06:48:09;5.97;;;2.77;;
19251;SDS011;9760;50.944;5.304;2023-03-16T06:50:35;5.07;;;2.73;;
19251;SDS011;9760;50.944;5.304;2023-03-16T06:53:01;6.83;;;2.57;;
19251;SDS011;9760;50.944;5.304;2023-03-16T06:55:26;10.47;;;2.90;;
19251;SDS011;9760;50.944;5.304;2023-03-16T06:57:52;8.93;;;2.77;;
19251;SDS011;9760;50.944;5.304;2023-03-16T07:00:17;7.80;;;2.50;;
19251;SDS011;9760;50.944;5.304;2023-03-16T07:02:43;8.97;;;2.57;;
19251;SDS011;9760;50.944;5.304;2023-03-16T07:05:09;9.30;;;2.63;;
19251;SDS011;9760;50.944;5.304;2023-03-16T07:07:41;5.80;;;2.00;;
19251;SDS011;9760;50.944;5.304;2023-03-16T07:10:11;7.07;;;2.53;;
19251;SDS011;9760;50.944;5.304;2023-03-16T07:12:38;8.13;;;2.63;;
19251;SDS011;9760;50.944;5.304;2023-03-16T07:15:04;4.50;;;2.43;;
19251;SDS011;9760;50.944;5.304;2023-03-16T07:17:30;15.57;;;2.83;;
19251;SDS011;9760;50.944;5.304;2023-03-16T07:19:56;6.23;;;2.43;;
19251;SDS011;9760;50.944;5.304;2023-03-16T07:22:22;10.43;;;2.80;;
19251;SDS011;9760;50.944;5.304;2023-03-16T07:24:50;9.00;;;2.40;;
19251;SDS011;9760;50.944;5.304;2023-03-16T07:27:21;8.30;;;2.00;;
19251;SDS011;9760;50.944;5.304;2023-03-16T07:29:49;5.53;;;2.20;;
19251;SDS011;9760;50.944;5.304;2023-03-16T07:32:18;5.70;;;1.97;;
19251;SDS011;9760;50.944;5.304;2023-03-16T07:34:44;6.87;;;2.73;;
19251;SDS011;9760;50.944;5.304;2023-03-16T07:37:10;11.67;;;2.30;;
19251;SDS011;9760;50.944;5.304;2023-03-16T07:39:36;6.20;;;2.17;;
19251;SDS011;9760;50.944;5.304;2023-03-16T07:42:01;7.20;;;2.20;;
19251;SDS011;9760;50.944;5.304;2023-03-16T07:44:28;9.67;;;2.30;;
19251;SDS011;9760;50.944;5.304;2023-03-16T07:46:55;5.57;;;2.00;;
19251;SDS011;9760;50.944;5.304;2023-03-16T07:49:21;4.40;;;2.37;;
19251;SDS011;9760;50.944;5.304;2023-03-16T07:51:47;6.37;;;2.10;;
19251;SDS011;9760;50.944;5.304;2023-03-16T07:54:13;5.00;;;2.03;;
19251;SDS011;9760;50.944;5.304;2023-03-16T07:56:38;9.97;;;2.20;;
19251;SDS011;9760;50.944;5.304;2023-03-16T07:59:05;10.80;;;2.10;;
19251;SDS011;9760;50.944;5.304;2023-03-16T08:01:31;5.57;;;2.00;;
19251;SDS011;9760;50.944;5.304;2023-03-16T08:03:58;6.80;;;2.00;;
19251;SDS011;9760;50.944;5.304;2023-03-16T08:06:25;9.60;;;2.07;;
19251;SDS011;9760;50.944;5.304;2023-03-16T08:08:51;8.53;;;2.20;;
19251;SDS011;9760;50.944;5.304;2023-03-16T08:11:17;6.53;;;2.10;;
19251;SDS011;9760;50.944;5.304;2023-03-16T08:13:48;10.53;;;2.83;;
19251;SDS011;9760;50.944;5.304;2023-03-16T08:16:18;13.73;;;2.30;;
19251;SDS011;9760;50.944;5.304;2023-03-16T08:18:47;3.40;;;1.70;;
19251;SDS011;9760;50.944;5.304;2023-03-16T08:21:14;9.10;;;1.93;;
19251;SDS011;9760;50.944;5.304;2023-03-16T08:23:41;8.23;;;2.20;;
19251;SDS011;9760;50.944;5.304;2023-03-16T08:26:13;15.30;;;2.20;;
19251;SDS011;9760;50.944;5.304;2023-03-16T08:28:39;7.53;;;1.83;;
19251;SDS011;9760;50.944;5.304;2023-03-16T08:31:06;7.37;;;1.60;;
19251;SDS011;9760;50.944;5.304;2023-03-16T08:33:32;7.20;;;2.33;;
19251;SDS011;9760;50.944;5.304;2023-03-16T08:35:57;8.53;;;2.20;;
19251;SDS011;9760;50.944;5.304;2023-03-16T08:38:23;7.30;;;1.90;;
19251;SDS011;9760;50.944;5.304;2023-03-16T08:40:49;6.33;;;1.80;;
19251;SDS011;9760;50.944;5.304;2023-03-16T08:43:16;5.80;;;2.27;;
19251;SDS011;9760;50.944;5.304;2023-03-16T08:45:43;3.80;;;1.67;;
19251;SDS011;9760;50.944;5.304;2023-03-16T08:48:09;6.73;;;2.33;;
19251;SDS011;9760;50.944;5.304;2023-03-16T08:50:38;5.40;;;1.90;;
19251;SDS011;9760;50.944;5.304;2023-03-16T08:53:05;6.77;;;2.23;;
19251;SDS011;9760;50.944;5.304;2023-03-16T08:55:31;8.40;;;2.23;;
19251;SDS011;9760;50.944;5.304;2023-03-16T08:57:57;4.83;;;1.67;;
19251;SDS011;9760;50.944;5.304;2023-03-16T09:00:22;6.07;;;2.00;;
19251;SDS011;9760;50.944;5.304;2023-03-16T09:02:48;9.23;;;2.37;;
19251;SDS011;9760;50.944;5.304;2023-03-16T09:05:14;8.43;;;2.77;;
19251;SDS011;9760;50.944;5.304;2023-03-16T09:07:42;9.67;;;2.37;;
19251;SDS011;9760;50.944;5.304;2023-03-16T09:10:08;9.80;;;2.03;;
19251;SDS011;9760;50.944;5.304;2023-03-16T09:12:37;10.60;;;2.27;;
19251;SDS011;9760;50.944;5.304;2023-03-16T09:15:05;6.00;;;2.53;;
19251;SDS011;9760;50.944;5.304;2023-03-16T09:17:31;5.97;;;2.30;;
19251;SDS011;9760;50.944;5.304;2023-03-16T09:19:58;7.67;;;2.23;;
19251;SDS011;9760;50.944;5.304;2023-03-16T09:22:24;8.43;;;2.70;;
19251;SDS011;9760;50.944;5.304;2023-03-16T09:24:49;5.27;;;2.73;;
19251;SDS011;9760;50.944;5.304;2023-03-16T09:27:15;6.40;;;2.30;;
19251;SDS011;9760;50.944;5.304;2023-03-16T09:29:42;7.77;;;2.10;;
19251;SDS011;9760;50.944;5.304;2023-03-16T09:32:07;6.20;;;2.40;;
19251;SDS011;9760;50.944;5.304;2023-03-16T09:34:33;7.27;;;2.17;;
19251;SDS011;9760;50.944;5.304;2023-03-16T09:36:59;3.20;;;1.97;;
19251;SDS011;9760;50.944;5.304;2023-03-16T09:39:25;9.80;;;2.50;;
19251;SDS011;9760;50.944;5.304;2023-03-16T09:41:53;4.23;;;1.97;;
19251;SDS011;9760;50.944;5.304;2023-03-16T09:44:25;3.73;;;1.87;;
19251;SDS011;9760;50.944;5.304;2023-03-16T09:47:00;4.03;;;1.90;;
19251;SDS011;9760;50.944;5.304;2023-03-16T09:49:33;4.77;;;2.00;;
19251;SDS011;9760;50.944;5.304;2023-03-16T09:52:11;6.20;;;2.30;;
19251;SDS011;9760;50.944;5.304;2023-03-16T09:57:27;7.60;;;2.17;;
19251;SDS011;9760;50.944;5.304;2023-03-16T09:59:57;8.40;;;2.73;;
19251;SDS011;9760;50.944;5.304;2023-03-16T10:05:21;6.37;;;1.80;;
19251;SDS011;9760;50.944;5.304;2023-03-16T10:07:51;8.70;;;2.03;;
19251;SDS011;9760;50.944;5.304;2023-03-16T10:13:08;4.93;;;2.03;;
19251;SDS011;9760;50.944;5.304;2023-03-16T10:15:43;17.80;;;2.93;;
19251;SDS011;9760;50.944;5.304;2023-03-16T10:20:45;8.70;;;1.57;;
19251;SDS011;9760;50.944;5.304;2023-03-16T10:23:19;7.73;;;1.73;;
19251;SDS011;9760;50.944;5.304;2023-03-16T10:25:54;6.77;;;1.73;;
19251;SDS011;9760;50.944;5.304;2023-03-16T10:28:25;11.60;;;1.90;;
19251;SDS011;9760;50.944;5.304;2023-03-16T10:30:55;5.47;;;1.90;;
19251;SDS011;9760;50.944;5.304;2023-03-16T10:33:26;2.40;;;1.47;;
19251;SDS011;9760;50.944;5.304;2023-03-16T10:43:46;7.27;;;2.20;;
19251;SDS011;9760;50.944;5.304;2023-03-16T10:46:20;2.20;;;1.20;;
19251;SDS011;9760;50.944;5.304;2023-03-16T10:48:53;7.10;;;1.60;;
19251;SDS011;9760;50.944;5.304;2023-03-16T10:51:28;2.90;;;1.10;;
19251;SDS011;9760;50.944;5.304;2023-03-16T10:54:03;13.20;;;1.80;;
19251;SDS011;9760;50.944;5.304;2023-03-16T10:56:44;5.30;;;1.93;;
19251;SDS011;9760;50.944;5.304;2023-03-16T10:59:29;6.50;;;1.60;;
19251;SDS011;9760;50.944;5.304;2023-03-16T11:02:07;4.30;;;1.47;;
19251;SDS011;9760;50.944;5.304;2023-03-16T11:04:40;4.37;;;1.20;;
19251;SDS011;9760;50.944;5.304;2023-03-16T11:07:06;3.97;;;1.50;;
19251;SDS011;9760;50.944;5.304;2023-03-16T11:09:38;6.27;;;1.50;;
19251;SDS011;9760;50.944;5.304;2023-03-16T11:12:14;5.03;;;1.47;;
19251;SDS011;9760;50.944;5.304;2023-03-16T11:14:48;5.17;;;1.40;;
19251;SDS011;9760;50.944;5.304;2023-03-16T11:17:18;4.23;;;1.40;;
19251;SDS011;9760;50.944;5.304;2023-03-16T11:19:52;5.73;;;1.60;;
19251;SDS011;9760;50.944;5.304;2023-03-16T11:22:23;6.90;;;1.40;;
19251;SDS011;9760;50.944;5.304;2023-03-16T11:27:25;3.90;;;1.40;;
19251;SDS011;9760;50.944;5.304;2023-03-16T11:30:13;4.47;;;2.00;;
19251;SDS011;9760;50.944;5.304;2023-03-16T11:32:49;6.37;;;1.43;;
19251;SDS011;9760;50.944;5.304;2023-03-16T11:35:18;4.10;;;1.47;;
19251;SDS011;9760;50.944;5.304;2023-03-16T11:52:00;3.23;;;1.33;;
19251;SDS011;9760;50.944;5.304;2023-03-16T12:03:56;6.47;;;1.20;;
19251;SDS011;9760;50.944;5.304;2023-03-16T12:06:35;4.67;;;1.07;;
19251;SDS011;9760;50.944;5.304;2023-03-16T12:11:53;2.37;;;0.80;;
19251;SDS011;9760;50.944;5.304;2023-03-16T12:17:02;1.93;;;0.90;;
19251;SDS011;9760;50.944;5.304;2023-03-16T12:19:40;3.03;;;0.80;;
19251;SDS011;9760;50.944;5.304;2023-03-16T12:24:56;2.37;;;0.80;;
19251;SDS011;9760;50.944;5.304;2023-03-16T12:27:31;4.90;;;0.93;;
19251;SDS011;9760;50.944;5.304;2023-03-16T12:32:56;2.07;;;0.80;;
19251;SDS011;9760;50.944;5.304;2023-03-16T12:42:59;2.37;;;1.07;;
19251;SDS011;9760;50.944;5.304;2023-03-16T12:50:59;4.87;;;1.20;;
19251;SDS011;9760;50.944;5.304;2023-03-16T12:53:40;3.77;;;1.40;;
19251;SDS011;9760;50.944;5.304;2023-03-16T12:56:20;3.13;;;1.00;;
19251;SDS011;9760;50.944;5.304;2023-03-16T12:58:56;1.63;;;0.83;;
19251;SDS011;9760;50.944;5.304;2023-03-16T13:01:25;4.10;;;0.80;;
19251;SDS011;9760;50.944;5.304;2023-03-16T13:04:04;4.50;;;1.10;;
19251;SDS011;9760;50.944;5.304;2023-03-16T13:06:44;4.43;;;0.90;;
19251;SDS011;9760;50.944;5.304;2023-03-16T13:09:16;4.07;;;1.10;;
19251;SDS011;9760;50.944;5.304;2023-03-16T13:11:48;3.77;;;1.10;;
19251;SDS011;9760;50.944;5.304;2023-03-16T13:17:05;6.20;;;1.33;;
19251;SDS011;9760;50.944;5.304;2023-03-16T13:19:41;3.57;;;1.00;;
19251;SDS011;9760;50.944;5.304;2023-03-16T13:22:24;3.27;;;1.30;;
19251;SDS011;9760;50.944;5.304;2023-03-16T13:25:12;3.93;;;1.20;;
19251;SDS011;9760;50.944;5.304;2023-03-16T13:27:47;3.37;;;1.10;;
19251;SDS011;9760;50.944;5.304;2023-03-16T13:30:17;4.50;;;1.00;;
19251;SDS011;9760;50.944;5.304;2023-03-16T13:32:51;4.37;;;1.23;;
19251;SDS011;9760;50.944;5.304;2023-03-16T13:35:25;2.73;;;0.80;;
19251;SDS011;9760;50.944;5.304;2023-03-16T13:37:53;2.63;;;1.10;;
19251;SDS011;9760;50.944;5.304;2023-03-16T13:40:27;1.67;;;1.00;;
19251;SDS011;9760;50.944;5.304;2023-03-16T13:42:52;3.80;;;1.17;;
19251;SDS011;9760;50.944;5.304;2023-03-16T13:45:21;5.07;;;1.07;;
19251;SDS011;9760;50.944;5.304;2023-03-16T13:47:52;6.13;;;1.30;;
19251;SDS011;9760;50.944;5.304;2023-03-16T13:50:19;2.83;;;0.83;;
19251;SDS011;9760;50.944;5.304;2023-03-16T13:53:20;2.20;;;0.87;;
19251;SDS011;9760;50.944;5.304;2023-03-16T13:55:42;1.80;;;0.80;;
19251;SDS011;9760;50.944;5.304;2023-03-16T13:58:16;6.40;;;1.30;;
19251;SDS011;9760;50.944;5.304;2023-03-16T14:01:04;2.03;;;0.90;;
19251;SDS011;9760;50.944;5.304;2023-03-16T14:03:41;4.83;;;0.70;;
19251;SDS011;9760;50.944;5.304;2023-03-16T14:06:29;3.80;;;0.80;;
19251;SDS011;9760;50.944;5.304;2023-03-16T14:08:59;5.03;;;0.77;;
19251;SDS011;9760;50.944;5.304;2023-03-16T14:11:29;9.60;;;1.20;;
19251;SDS011;9760;50.944;5.304;2023-03-16T14:13:56;2.80;;;0.90;;
19251;SDS011;9760;50.944;5.304;2023-03-16T14:16:23;3.03;;;0.67;;
19251;SDS011;9760;50.944;5.304;2023-03-16T14:19:02;0.77;;;0.63;;
19251;SDS011;9760;50.944;5.304;2023-03-16T14:21:32;2.23;;;1.07;;
19251;SDS011;9760;50.944;5.304;2023-03-16T14:24:02;2.13;;;1.00;;
19251;SDS011;9760;50.944;5.304;2023-03-16T14:26:39;3.47;;;0.93;;
19251;SDS011;9760;50.944;5.304;2023-03-16T14:29:13;3.37;;;1.10;;
19251;SDS011;9760;50.944;5.304;2023-03-16T14:31:45;3.83;;;1.10;;
19251;SDS011;9760;50.944;5.304;2023-03-16T14:34:28;2.17;;;0.77;;
19251;SDS011;9760;50.944;5.304;2023-03-16T14:37:06;4.03;;;0.80;;
19251;SDS011;9760;50.944;5.304;2023-03-16T14:39:33;6.33;;;0.70;;
19251;SDS011;9760;50.944;5.304;2023-03-16T14:42:01;2.27;;;0.80;;
19251;SDS011;9760;50.944;5.304;2023-03-16T14:44:30;2.57;;;0.70;;
19251;SDS011;9760;50.944;5.304;2023-03-16T14:46:58;3.57;;;1.13;;
19251;SDS011;9760;50.944;5.304;2023-03-16T14:49:29;1.47;;;0.70;;
19251;SDS011;9760;50.944;5.304;2023-03-16T14:51:58;0.60;;;0.60;;
19251;SDS011;9760;50.944;5.304;2023-03-16T14:54:26;5.33;;;1.17;;
19251;SDS011;9760;50.944;5.304;2023-03-16T14:56:53;2.93;;;0.93;;
19251;SDS011;9760;50.944;5.304;2023-03-16T14:59:23;3.77;;;0.87;;
19251;SDS011;9760;50.944;5.304;2023-03-16T15:01:49;1.50;;;0.70;;
19251;SDS011;9760;50.944;5.304;2023-03-16T15:04:26;4.93;;;0.80;;
19251;SDS011;9760;50.944;5.304;2023-03-16T15:06:55;5.57;;;0.77;;
19251;SDS011;9760;50.944;5.304;2023-03-16T15:09:26;2.03;;;0.80;;
19251;SDS011;9760;50.944;5.304;2023-03-16T15:12:03;4.43;;;1.30;;
19251;SDS011;9760;50.944;5.304;2023-03-16T15:14:39;2.80;;;0.70;;
19251;SDS011;9760;50.944;5.304;2023-03-16T15:17:23;1.67;;;0.60;;
19251;SDS011;9760;50.944;5.304;2023-03-16T15:19:49;3.67;;;0.73;;
19251;SDS011;9760;50.944;5.304;2023-03-16T15:22:22;1.63;;;0.60;;
19251;SDS011;9760;50.944;5.304;2023-03-16T15:24:55;10.73;;;0.70;;
19251;SDS011;9760;50.944;5.304;2023-03-16T15:27:22;2.13;;;0.60;;
19251;SDS011;9760;50.944;5.304;2023-03-16T15:29:56;4.33;;;0.90;;
19251;SDS011;9760;50.944;5.304;2023-03-16T15:32:21;4.57;;;1.10;;
19251;SDS011;9760;50.944;5.304;2023-03-16T15:34:47;1.97;;;1.00;;
19251;SDS011;9760;50.944;5.304;2023-03-16T15:37:17;3.50;;;0.87;;
19251;SDS011;9760;50.944;5.304;2023-03-16T15:39:44;2.47;;;0.90;;
19251;SDS011;9760;50.944;5.304;2023-03-16T15:42:15;2.13;;;0.80;;
19251;SDS011;9760;50.944;5.304;2023-03-16T15:44:42;3.07;;;1.30;;
19251;SDS011;9760;50.944;5.304;2023-03-16T15:47:09;2.53;;;0.80;;
19251;SDS011;9760;50.944;5.304;2023-03-16T15:49:35;6.90;;;1.03;;
19251;SDS011;9760;50.944;5.304;2023-03-16T15:52:02;4.37;;;0.90;;
19251;SDS011;9760;50.944;5.304;2023-03-16T15:54:28;2.40;;;0.80;;
19251;SDS011;9760;50.944;5.304;2023-03-16T15:56:54;2.87;;;0.90;;
19251;SDS011;9760;50.944;5.304;2023-03-16T15:59:21;3.03;;;1.37;;
19251;SDS011;9760;50.944;5.304;2023-03-16T16:01:48;4.80;;;1.00;;
19251;SDS011;9760;50.944;5.304;2023-03-16T16:04:18;4.50;;;1.00;;
19251;SDS011;9760;50.944;5.304;2023-03-16T16:06:45;2.23;;;0.87;;
19251;SDS011;9760;50.944;5.304;2023-03-16T16:09:12;4.00;;;1.03;;
19251;SDS011;9760;50.944;5.304;2023-03-16T16:11:38;6.63;;;1.43;;
19251;SDS011;9760;50.944;5.304;2023-03-16T16:14:05;3.83;;;1.10;;
19251;SDS011;9760;50.944;5.304;2023-03-16T16:16:37;2.97;;;1.27;;
19251;SDS011;9760;50.944;5.304;2023-03-16T16:19:04;6.07;;;1.20;;
19251;SDS011;9760;50.944;5.304;2023-03-16T16:21:30;10.40;;;1.37;;
19251;SDS011;9760;50.944;5.304;2023-03-16T16:23:58;2.67;;;1.30;;
19251;SDS011;9760;50.944;5.304;2023-03-16T16:28:55;3.33;;;1.40;;
19251;SDS011;9760;50.944;5.304;2023-03-16T16:31:23;2.47;;;1.50;;
19251;SDS011;9760;50.944;5.304;2023-03-16T16:33:50;3.60;;;1.17;;